createdAt,value
2023-04-01T00:01:04.921Z,4.68
2023-04-01T00:03:34.370Z,4.70
2023-04-01T00:06:01.897Z,4.50
2023-04-01T00:08:29.607Z,4.07
2023-04-01T00:10:58.000Z,4.80
2023-04-01T00:13:27.350Z,4.57
2023-04-01T00:15:56.202Z,4.75
2023-04-01T00:18:23.707Z,5.05
2023-04-01T00:20:52.575Z,6.65
2023-04-01T00:23:20.592Z,5.82
2023-04-01T00:25:49.130Z,4.05
2023-04-01T00:28:21.001Z,5.70
2023-04-01T00:30:48.284Z,5.85
2023-04-01T00:33:14.864Z,5.70
2023-04-01T00:35:41.637Z,5.85
2023-04-01T00:38:08.621Z,5.07
2023-04-01T00:40:42.138Z,7.88
2023-04-01T00:43:19.467Z,5.88
2023-04-01T00:45:47.906Z,6.68
2023-04-01T00:48:19.158Z,5.47
2023-04-01T00:50:53.062Z,6.70
2023-04-01T00:53:21.330Z,4.90
2023-04-01T00:56:02.972Z,5.05
2023-04-01T00:58:36.175Z,4.68
2023-04-01T01:01:02.852Z,5.15
2023-04-01T01:03:29.928Z,5.50
2023-04-01T01:06:07.770Z,6.57
2023-04-01T01:08:53.765Z,6.68
2023-04-01T01:11:37.024Z,7.05
2023-04-01T01:14:20.663Z,6.78
2023-04-01T01:16:59.808Z,5.45
2023-04-01T01:19:38.563Z,4.65
2023-04-01T01:23:03.583Z,5.35
2023-04-01T01:25:42.230Z,5.05
2023-04-01T01:28:20.786Z,5.47
2023-04-01T01:31:10.508Z,4.60
2023-04-01T01:33:45.400Z,3.83
2023-04-01T01:36:15.305Z,3.97
2023-04-01T01:38:42.557Z,3.42
2023-04-01T01:41:12.225Z,4.20
2023-04-01T01:43:43.162Z,3.22
2023-04-01T01:46:23.292Z,3.08
2023-04-01T01:48:52.042Z,2.70
2023-04-01T01:51:20.466Z,2.50
2023-04-01T01:53:47.191Z,3.20
2023-04-01T01:56:14.909Z,2.10
2023-04-01T01:58:46.704Z,2.40
2023-04-01T02:01:26.594Z,2.28
2023-04-01T02:03:54.671Z,2.33
2023-04-01T02:06:24.576Z,1.95
2023-04-01T02:08:57.016Z,2.50
2023-04-01T02:11:45.062Z,1.83
2023-04-01T02:14:21.067Z,2.50
2023-04-01T02:17:05.586Z,2.25
2023-04-01T02:19:40.684Z,2.10
2023-04-01T02:22:12.695Z,2.60
2023-04-01T02:24:41.203Z,2.30
2023-04-01T02:27:08.326Z,2.08
2023-04-01T02:29:34.951Z,2.72
2023-04-01T02:32:03.452Z,2.10
2023-04-01T02:34:30.646Z,2.10
2023-04-01T02:36:58.402Z,1.77
2023-04-01T02:39:26.623Z,1.75
2023-04-01T02:41:53.589Z,2.25
2023-04-01T02:44:20.171Z,2.15
2023-04-01T02:46:46.819Z,2.42
2023-04-01T02:49:13.490Z,2.15
2023-04-01T02:51:40.080Z,2.78
2023-04-01T02:54:06.708Z,2.90
2023-04-01T02:56:33.314Z,3.72
2023-04-01T02:58:59.878Z,4.35
2023-04-01T03:01:26.631Z,3.92
2023-04-01T03:03:53.234Z,4.00
2023-04-01T03:06:19.807Z,3.13
2023-04-01T03:08:46.606Z,4.35
2023-04-01T03:11:13.558Z,4.20
2023-04-01T03:13:40.163Z,4.40
2023-04-01T03:16:07.515Z,3.78
2023-04-01T03:18:34.278Z,4.30
2023-04-01T03:21:19.450Z,3.85
2023-04-01T03:23:46.231Z,3.65
2023-04-01T03:26:13.136Z,3.75
2023-04-01T03:28:39.840Z,4.35
2023-04-01T03:31:06.590Z,3.88
2023-04-01T03:33:33.711Z,4.93
2023-04-01T03:36:00.547Z,4.15
2023-04-01T03:38:27.310Z,4.63
2023-04-01T03:40:53.877Z,4.05
2023-04-01T03:43:20.416Z,4.68
2023-04-01T03:45:52.415Z,4.35
2023-04-01T03:48:19.539Z,4.90
2023-04-01T03:50:46.325Z,4.53
2023-04-01T03:53:13.234Z,4.25
2023-04-01T03:55:40.286Z,5.43
2023-04-01T03:58:07.860Z,4.72
2023-04-01T04:00:34.440Z,3.40
2023-04-01T04:03:01.696Z,3.30
2023-04-01T04:05:28.424Z,2.28
2023-04-01T04:07:55.300Z,2.15
2023-04-01T04:10:23.910Z,2.88
2023-04-01T04:12:51.032Z,3.05
2023-04-01T04:15:18.075Z,3.38
2023-04-01T04:17:48.509Z,3.67
2023-04-01T04:20:15.780Z,4.38
2023-04-01T04:22:42.372Z,4.15
2023-04-01T04:25:09.937Z,4.72
2023-04-01T04:27:36.608Z,5.00
2023-04-01T04:30:04.501Z,5.03
2023-04-01T04:32:31.393Z,4.88
2023-04-01T04:34:58.061Z,4.55
2023-04-01T04:37:24.726Z,4.00
2023-04-01T04:39:51.247Z,3.90
2023-04-01T04:42:17.772Z,4.10
2023-04-01T04:44:44.753Z,3.67
2023-04-01T04:47:11.826Z,3.97
2023-04-01T04:49:38.526Z,4.70
2023-04-01T04:52:05.082Z,4.03
2023-04-01T04:54:31.706Z,4.00
2023-04-01T04:56:58.279Z,4.97
2023-04-01T04:59:24.949Z,4.55
2023-04-01T05:01:51.700Z,4.90
2023-04-01T05:04:18.320Z,4.32
2023-04-01T05:06:46.081Z,4.53
2023-04-01T05:09:13.265Z,4.70
2023-04-01T05:11:39.830Z,4.90
2023-04-01T05:14:06.484Z,4.95
2023-04-01T05:16:33.041Z,4.80
2023-04-01T05:18:59.621Z,4.47
2023-04-01T05:21:26.492Z,5.05
2023-04-01T05:23:53.085Z,4.40
2023-04-01T05:26:19.705Z,4.82
2023-04-01T05:28:46.236Z,3.97
2023-04-01T05:31:12.847Z,4.03
2023-04-01T05:33:39.699Z,4.18
2023-04-01T05:36:13.198Z,4.00
2023-04-01T05:38:39.855Z,4.47
2023-04-01T05:41:06.736Z,4.57
2023-04-01T05:43:37.218Z,4.47
2023-04-01T05:46:03.803Z,5.10
2023-04-01T05:48:30.423Z,4.55
2023-04-01T05:50:57.062Z,3.30
2023-04-01T05:53:23.702Z,2.10
2023-04-01T05:55:50.488Z,2.28
2023-04-01T05:58:17.182Z,1.10
2023-04-01T06:00:44.103Z,1.00
2023-04-01T06:03:10.890Z,0.90
2023-04-01T06:05:42.826Z,0.77
2023-04-01T06:08:20.311Z,0.75
2023-04-01T06:11:09.260Z,0.70
2023-04-01T06:13:47.971Z,0.70
2023-04-01T06:16:30.930Z,0.70
2023-04-01T06:19:05.080Z,0.90
2023-04-01T06:22:13.402Z,1.50
2023-04-01T06:25:13.969Z,1.40
2023-04-01T06:28:02.210Z,1.77
2023-04-01T06:31:02.693Z,2.03
2023-04-01T06:33:47.872Z,2.25
2023-04-01T06:36:41.951Z,2.67
2023-04-01T06:39:22.968Z,4.15
2023-04-01T06:42:12.655Z,4.30
2023-04-01T06:45:08.244Z,4.47
2023-04-01T06:47:49.946Z,4.72
2023-04-01T06:50:54.147Z,5.13
2023-04-01T06:53:48.179Z,5.55
2023-04-01T06:56:18.561Z,6.45
2023-04-01T06:59:03.644Z,5.60
2023-04-01T07:01:36.998Z,5.22
2023-04-01T07:04:11.127Z,5.97
2023-04-01T07:06:46.210Z,5.73
2023-04-01T07:11:46.552Z,6.03
2023-04-01T07:14:36.322Z,5.43
2023-04-01T07:17:14.048Z,5.65
2023-04-01T07:19:59.965Z,6.18
2023-04-01T07:22:48.670Z,6.18
2023-04-01T07:25:18.803Z,5.32
2023-04-01T07:27:47.001Z,6.15
2023-04-01T07:30:19.773Z,6.28
2023-04-01T07:32:57.431Z,6.82
2023-04-01T07:35:31.727Z,5.88
2023-04-01T07:38:13.658Z,4.97
2023-04-01T07:40:46.734Z,5.93
2023-04-01T07:43:22.316Z,6.20
2023-04-01T07:45:54.501Z,6.28
2023-04-01T07:48:26.929Z,6.05
2023-04-01T07:50:59.467Z,6.35
2023-04-01T07:53:50.512Z,6.50
2023-04-01T07:56:22.327Z,6.35
2023-04-01T07:59:12.888Z,6.38
2023-04-01T08:02:21.668Z,6.93
2023-04-01T08:05:10.101Z,7.60
2023-04-01T08:07:54.142Z,6.60
2023-04-01T08:10:52.472Z,7.65
2023-04-01T08:13:45.483Z,6.70
2023-04-01T08:16:28.957Z,6.22
2023-04-01T08:19:15.558Z,6.13
2023-04-01T08:21:51.975Z,5.78
2023-04-01T08:24:46.551Z,5.47
2023-04-01T08:27:24.263Z,5.97
2023-04-01T08:30:02.848Z,7.25
2023-04-01T08:32:36.260Z,6.30
2023-04-01T08:35:16.689Z,6.28
2023-04-01T08:37:46.406Z,6.85
2023-04-01T08:40:29.807Z,8.50
2023-04-01T08:43:03.336Z,7.63
2023-04-01T08:45:45.511Z,7.30
2023-04-01T08:48:54.008Z,8.18
2023-04-01T08:51:47.880Z,8.45
2023-04-01T08:54:23.623Z,7.88
2023-04-01T08:57:02.152Z,9.40
2023-04-01T08:59:31.439Z,8.98
2023-04-01T09:02:17.014Z,9.55
2023-04-01T09:05:16.434Z,9.77
2023-04-01T09:08:01.973Z,8.95
2023-04-01T09:10:58.493Z,9.45
2023-04-01T09:13:47.203Z,9.05
2023-04-01T09:16:18.951Z,8.30
2023-04-01T09:19:11.081Z,8.88
2023-04-01T09:22:06.413Z,8.82
2023-04-01T09:24:54.605Z,8.52
2023-04-01T09:27:29.600Z,9.75
2023-04-01T09:32:54.066Z,9.98
2023-04-01T09:35:43.847Z,8.68
2023-04-01T09:38:24.436Z,8.63
2023-04-01T09:41:08.736Z,8.95
2023-04-01T09:43:52.761Z,8.88
2023-04-01T09:46:54.794Z,8.73
2023-04-01T09:49:35.174Z,8.68
2023-04-01T09:52:19.968Z,8.80
2023-04-01T09:55:12.002Z,8.27
2023-04-01T09:57:41.443Z,8.88
2023-04-01T10:00:26.438Z,7.75
2023-04-01T10:03:21.047Z,7.07
2023-04-01T10:05:56.802Z,6.63
2023-04-01T10:08:44.322Z,6.15
2023-04-01T10:11:10.852Z,5.07
2023-04-01T10:14:06.511Z,5.93
2023-04-01T10:17:01.117Z,5.00
2023-04-01T10:19:58.461Z,5.75
2023-04-01T10:22:54.053Z,6.43
2023-04-01T10:25:54.851Z,5.68
2023-04-01T10:28:30.255Z,5.82
2023-04-01T10:31:02.682Z,4.93
2023-04-01T10:33:57.227Z,4.82
2023-04-01T10:36:35.693Z,5.07
2023-04-01T10:39:21.635Z,5.75
2023-04-01T10:42:22.295Z,5.10
2023-04-01T10:45:11.852Z,5.35
2023-04-01T10:47:59.848Z,4.68
2023-04-01T10:51:04.018Z,5.25
2023-04-01T10:53:46.059Z,4.75
2023-04-01T10:56:21.774Z,4.82
2023-04-01T10:59:06.998Z,5.00
2023-04-01T11:02:09.949Z,6.40
2023-04-01T11:05:05.685Z,5.55
2023-04-01T11:07:38.394Z,6.30
2023-04-01T11:10:23.879Z,6.38
2023-04-01T11:13:26.409Z,6.60
2023-04-01T11:15:56.049Z,7.03
2023-04-01T11:18:37.430Z,7.53
2023-04-01T11:21:22.117Z,7.93
2023-04-01T11:24:07.153Z,8.45
2023-04-01T11:26:38.820Z,8.40
2023-04-01T11:29:26.681Z,8.50
2023-04-01T11:32:08.242Z,8.80
2023-04-01T11:35:29.080Z,8.80
2023-04-01T11:38:04.148Z,8.75
2023-04-01T11:43:17.313Z,8.82
2023-04-01T11:46:12.477Z,10.05
2023-04-01T11:48:58.155Z,9.57
2023-04-01T11:51:58.694Z,8.77
2023-04-01T11:54:33.052Z,9.32
2023-04-01T11:57:18.464Z,8.02
2023-04-01T12:00:15.156Z,8.43
2023-04-01T12:03:02.636Z,9.10
2023-04-01T12:05:49.530Z,7.47
2023-04-01T12:08:34.640Z,8.07
2023-04-01T12:11:26.022Z,7.22
2023-04-01T12:14:15.920Z,6.72
2023-04-01T12:17:07.123Z,6.30
2023-04-01T12:19:56.263Z,6.40
2023-04-01T12:22:55.819Z,5.95
2023-04-01T12:25:46.889Z,6.97
2023-04-01T12:28:19.660Z,6.72
2023-04-01T12:31:18.969Z,6.45
2023-04-01T12:34:04.402Z,5.88
2023-04-01T12:39:35.706Z,5.50
2023-04-01T12:42:08.256Z,5.70
2023-04-01T12:44:37.975Z,5.28
2023-04-01T12:47:31.428Z,4.53
2023-04-01T12:50:20.235Z,4.75
2023-04-01T12:53:15.686Z,5.13
2023-04-01T12:55:43.664Z,4.78
2023-04-01T12:58:44.332Z,4.13
2023-04-01T13:01:25.382Z,3.78
2023-04-01T13:04:17.158Z,3.95
2023-04-01T13:06:50.017Z,3.65
2023-04-01T13:09:35.547Z,4.03
2023-04-01T13:12:29.891Z,4.65
2023-04-01T13:15:18.081Z,3.75
2023-04-01T13:18:17.574Z,4.20
2023-04-01T13:21:00.883Z,4.47
2023-04-01T13:23:54.258Z,3.72
2023-04-01T13:26:50.539Z,3.65
2023-04-01T13:29:37.324Z,4.20
2023-04-01T13:32:33.330Z,3.80
2023-04-01T13:35:26.046Z,3.13
2023-04-01T13:40:28.441Z,3.10
2023-04-01T13:42:57.327Z,3.03
2023-04-01T13:45:30.541Z,3.30
2023-04-01T13:48:22.066Z,3.05
2023-04-01T13:50:48.578Z,3.92
2023-04-01T13:53:26.954Z,3.38
2023-04-01T13:55:56.335Z,3.63
2023-04-01T13:58:44.414Z,3.97
2023-04-01T14:01:20.896Z,3.22
2023-04-01T14:03:56.823Z,3.40
2023-04-01T14:07:00.814Z,3.63
2023-04-01T14:09:52.012Z,3.80
2023-04-01T14:12:30.669Z,3.70
2023-04-01T14:15:06.436Z,4.00
2023-04-01T14:17:49.238Z,3.53
2023-04-01T14:20:39.078Z,3.55
2023-04-01T14:23:24.429Z,4.00
2023-04-01T14:28:54.414Z,3.28
2023-04-01T14:32:01.770Z,3.60
2023-04-01T14:35:02.517Z,2.95
2023-04-01T14:37:59.675Z,3.08
2023-04-01T14:40:46.043Z,2.90
2023-04-01T14:43:39.585Z,3.17
2023-04-01T14:46:28.230Z,3.47
2023-04-01T14:49:31.590Z,3.80
2023-04-01T14:52:06.794Z,3.90
2023-04-01T14:54:37.512Z,3.17
2023-04-01T14:57:27.865Z,3.08
2023-04-01T15:00:19.362Z,2.70
2023-04-01T15:03:24.432Z,2.95
2023-04-01T15:06:11.969Z,3.08
2023-04-01T15:09:07.623Z,2.67
2023-04-01T15:12:00.828Z,2.80
2023-04-01T15:14:39.337Z,2.60
2023-04-01T15:17:37.214Z,2.72
2023-04-01T15:20:20.631Z,2.55
2023-04-01T15:25:37.220Z,2.28
2023-04-01T15:28:03.716Z,2.38
2023-04-01T15:30:49.600Z,2.30
2023-04-01T15:33:31.215Z,3.00
2023-04-01T15:36:15.884Z,2.22
2023-04-01T15:39:09.797Z,2.10
2023-04-01T15:41:54.275Z,1.80
2023-04-01T15:44:36.315Z,1.47
2023-04-01T15:47:27.364Z,2.15
2023-04-01T15:50:17.227Z,2.13
2023-04-01T15:52:51.028Z,1.92
2023-04-01T15:55:41.180Z,1.42
2023-04-01T15:58:32.577Z,1.65
2023-04-01T16:01:08.164Z,1.45
2023-04-01T16:04:00.786Z,1.45
2023-04-01T16:07:00.480Z,1.30
2023-04-01T16:09:54.890Z,1.60
2023-04-01T16:12:33.497Z,1.10
2023-04-01T16:15:36.155Z,1.88
2023-04-01T16:18:36.912Z,1.30
2023-04-01T16:21:12.884Z,1.10
2023-04-01T16:23:56.689Z,0.73
2023-04-01T16:26:34.006Z,0.80
2023-04-01T16:29:06.636Z,0.70
2023-04-01T16:31:50.137Z,0.75
2023-04-01T16:34:28.313Z,0.95
2023-04-01T16:37:01.567Z,0.68
2023-04-01T16:39:39.817Z,0.77
2023-04-01T16:42:25.057Z,0.57
2023-04-01T16:45:00.344Z,0.70
2023-04-01T16:47:41.818Z,0.70
2023-04-01T16:50:28.623Z,0.60
2023-04-01T16:53:25.468Z,0.55
2023-04-01T16:56:09.362Z,0.88
2023-04-01T16:58:57.319Z,0.73
2023-04-01T17:01:47.379Z,0.85
2023-04-01T17:04:41.916Z,0.70
2023-04-01T17:07:38.241Z,0.60
2023-04-01T17:10:27.695Z,0.70
2023-04-01T17:13:03.304Z,0.70
2023-04-01T17:15:48.898Z,0.65
2023-04-01T17:18:35.976Z,0.80
2023-04-01T17:21:14.824Z,0.80
2023-04-01T17:24:00.977Z,0.73
2023-04-01T17:26:43.390Z,0.70
2023-04-01T17:29:34.763Z,1.63
2023-04-01T17:32:25.049Z,0.90
2023-04-01T17:35:15.465Z,0.70
2023-04-01T17:37:58.995Z,0.60
2023-04-01T17:40:37.663Z,0.88
2023-04-01T17:43:22.958Z,0.55
2023-04-01T17:46:02.686Z,0.70
2023-04-01T17:48:56.699Z,0.60
2023-04-01T17:51:40.818Z,0.85
2023-04-01T17:54:26.112Z,0.80
2023-04-01T17:57:11.443Z,1.00
2023-04-01T17:59:40.835Z,0.75
2023-04-01T18:02:10.445Z,0.85
2023-04-01T18:04:52.264Z,1.00
2023-04-01T18:07:46.741Z,0.80
2023-04-01T18:10:23.165Z,1.10
2023-04-01T18:12:55.748Z,1.05
2023-04-01T18:16:03.956Z,0.95
2023-04-01T18:18:49.589Z,1.23
2023-04-01T18:21:22.304Z,1.17
2023-04-01T18:24:02.448Z,1.42
2023-04-01T18:26:33.304Z,1.50
2023-04-01T18:29:20.287Z,1.60
2023-04-01T18:31:52.622Z,1.98
2023-04-01T18:34:22.242Z,1.50
2023-04-01T18:36:54.289Z,2.25
2023-04-01T18:39:34.962Z,1.63
2023-04-01T18:42:10.030Z,1.70
2023-04-01T18:47:33.981Z,2.00
2023-04-01T18:50:12.618Z,1.90
2023-04-01T18:52:44.387Z,2.40
2023-04-01T18:55:30.511Z,2.10
2023-04-01T18:58:13.458Z,2.70
2023-04-01T19:00:46.657Z,2.15
2023-04-01T19:03:29.767Z,2.47
2023-04-01T19:06:01.098Z,2.13
2023-04-01T19:08:37.016Z,2.17
2023-04-01T19:11:11.367Z,2.10
2023-04-01T19:13:49.379Z,2.65
2023-04-01T19:17:01.317Z,2.53
2023-04-01T19:19:40.312Z,2.95
2023-04-01T19:22:12.861Z,2.70
2023-04-01T19:24:47.361Z,2.47
2023-04-01T19:27:29.045Z,2.20
2023-04-01T19:29:55.588Z,2.55
2023-04-01T19:32:38.194Z,2.17
2023-04-01T19:35:11.668Z,2.33
2023-04-01T19:37:46.022Z,2.65
2023-04-01T19:40:16.030Z,2.40
2023-04-01T19:42:56.129Z,2.72
2023-04-01T19:45:46.587Z,3.42
2023-04-01T19:48:39.590Z,3.10
2023-04-01T19:51:17.987Z,3.17
2023-04-01T19:54:11.882Z,3.05
2023-04-01T19:56:51.438Z,3.08
2023-04-01T19:59:58.852Z,3.70
2023-04-01T20:02:45.000Z,3.05
2023-04-01T20:05:37.509Z,3.58
2023-04-01T20:08:22.960Z,3.20
2023-04-01T20:13:41.483Z,2.42
2023-04-01T20:16:10.443Z,2.75
2023-04-01T20:18:42.589Z,3.05
2023-04-01T20:21:15.442Z,2.78
2023-04-01T20:23:46.387Z,2.90
2023-04-01T20:26:15.177Z,2.70
2023-04-01T20:28:44.859Z,3.38
2023-04-01T20:31:27.190Z,2.45
2023-04-01T20:33:54.991Z,2.78
2023-04-01T20:36:42.854Z,2.20
2023-04-01T20:39:10.009Z,2.72
2023-04-01T20:42:12.642Z,2.20
2023-04-01T20:45:07.080Z,2.35
2023-04-01T20:47:54.876Z,2.50
2023-04-01T20:50:40.129Z,2.42
2023-04-01T20:53:16.517Z,2.95
2023-04-01T20:56:18.243Z,3.00
2023-04-01T20:58:44.782Z,2.55
2023-04-01T21:01:39.058Z,2.30
2023-04-01T21:04:30.455Z,2.38
2023-04-01T21:07:15.753Z,2.22
2023-04-01T21:10:01.493Z,2.20
2023-04-01T21:12:40.755Z,2.40
2023-04-01T21:15:32.229Z,3.75
2023-04-01T21:18:05.004Z,3.60
2023-04-01T21:21:14.048Z,3.13
2023-04-01T21:24:05.144Z,3.42
2023-04-01T21:26:54.771Z,3.38
2023-04-01T21:29:37.734Z,3.88
2023-04-01T21:32:27.273Z,3.45
2023-04-01T21:34:59.379Z,2.60
2023-04-01T21:37:57.685Z,3.38
2023-04-01T21:40:39.200Z,3.38
2023-04-01T21:43:32.657Z,3.78
2023-04-01T21:46:08.085Z,3.53
2023-04-01T21:48:43.669Z,3.38
2023-04-01T21:51:37.400Z,3.13
2023-04-01T21:54:34.733Z,3.72
2023-04-01T21:57:16.907Z,3.05
2023-04-01T22:00:16.841Z,3.72
2023-04-01T22:03:26.864Z,3.55
2023-04-01T22:06:19.053Z,4.60
2023-04-01T22:09:01.671Z,3.55
2023-04-01T22:11:45.925Z,4.20
2023-04-01T22:14:27.278Z,4.32
2023-04-01T22:17:28.331Z,3.53
2023-04-01T22:20:17.604Z,3.47
2023-04-01T22:23:02.299Z,3.97
2023-04-01T22:25:34.756Z,3.92
2023-04-01T22:28:08.938Z,5.15
2023-04-01T22:30:39.663Z,4.65
2023-04-01T22:33:09.327Z,3.78
2023-04-01T22:36:03.685Z,4.95
2023-04-01T22:38:42.375Z,4.07
2023-04-01T22:41:46.208Z,4.47
2023-04-01T22:44:42.067Z,4.60
2023-04-01T22:49:51.656Z,4.90
2023-04-01T22:52:57.014Z,5.72
2023-04-01T22:55:33.368Z,5.20
2023-04-01T22:58:12.435Z,4.88
2023-04-01T23:00:55.733Z,4.68
2023-04-01T23:03:33.207Z,4.93
2023-04-01T23:06:05.777Z,4.65
2023-04-01T23:08:41.920Z,5.60
2023-04-01T23:11:19.290Z,5.78
2023-04-01T23:13:53.709Z,4.72
2023-04-01T23:16:38.101Z,4.53
2023-04-01T23:19:11.925Z,5.32
2023-04-01T23:22:15.072Z,5.75
2023-04-01T23:24:51.902Z,6.22
2023-04-01T23:27:38.138Z,5.65
2023-04-01T23:30:05.350Z,5.55
2023-04-01T23:32:31.972Z,5.50
2023-04-01T23:35:01.172Z,5.60
2023-04-01T23:37:28.491Z,5.50
2023-04-01T23:39:57.874Z,5.82
2023-04-01T23:42:31.487Z,5.43
2023-04-01T23:45:12.507Z,5.38
2023-04-01T23:47:41.973Z,5.22
2023-04-01T23:50:15.422Z,5.68
2023-04-01T23:52:47.082Z,6.70
2023-04-01T23:55:33.411Z,5.28
2023-04-01T23:58:06.212Z,5.43
